sensor_id;sensor_type;location;lat;lon;timestamp;P1;durP1;ratioP1;P2;durP2;ratioP2
59416;SDS011;45222;52.458;20.914;2023-02-26T00:00:39;6.80;;;3.90;;
59416;SDS011;45222;52.458;20.914;2023-02-26T00:04:44;5.20;;;2.10;;
59416;SDS011;45222;52.458;20.914;2023-02-26T00:08:29;4.90;;;2.10;;
59416;SDS011;45222;52.458;20.914;2023-02-26T00:12:14;6.30;;;3.50;;
59416;SDS011;45222;52.458;20.914;2023-02-26T00:16:00;5.90;;;1.80;;
59416;SDS011;45222;52.458;20.914;2023-02-26T00:19:47;6.00;;;3.50;;
59416;SDS011;45222;52.458;20.914;2023-02-26T00:23:33;6.00;;;3.10;;
59416;SDS011;45222;52.458;20.914;2023-02-26T00:27:18;5.90;;;3.20;;
59416;SDS011;45222;52.458;20.914;2023-02-26T00:31:04;4.60;;;2.20;;
59416;SDS011;45222;52.458;20.914;2023-02-26T00:34:51;5.00;;;2.90;;
59416;SDS011;45222;52.458;20.914;2023-02-26T00:38:37;4.00;;;1.50;;
59416;SDS011;45222;52.458;20.914;2023-02-26T00:42:26;3.90;;;1.90;;
59416;SDS011;45222;52.458;20.914;2023-02-26T00:46:13;5.80;;;3.00;;
59416;SDS011;45222;52.458;20.914;2023-02-26T00:50:11;7.10;;;3.20;;
59416;SDS011;45222;52.458;20.914;2023-02-26T00:54:01;5.00;;;2.00;;
59416;SDS011;45222;52.458;20.914;2023-02-26T00:57:52;5.80;;;2.00;;
59416;SDS011;45222;52.458;20.914;2023-02-26T01:01:37;4.10;;;1.90;;
59416;SDS011;45222;52.458;20.914;2023-02-26T01:05:22;3.60;;;1.50;;
59416;SDS011;45222;52.458;20.914;2023-02-26T01:09:09;6.10;;;3.30;;
59416;SDS011;45222;52.458;20.914;2023-02-26T01:13:02;6.50;;;3.50;;
59416;SDS011;45222;52.458;20.914;2023-02-26T01:16:51;5.10;;;2.10;;
59416;SDS011;45222;52.458;20.914;2023-02-26T01:20:42;5.00;;;1.70;;
59416;SDS011;45222;52.458;20.914;2023-02-26T01:24:30;6.40;;;4.00;;
59416;SDS011;45222;52.458;20.914;2023-02-26T01:28:20;4.30;;;1.70;;
59416;SDS011;45222;52.458;20.914;2023-02-26T01:32:07;6.40;;;3.70;;
59416;SDS011;45222;52.458;20.914;2023-02-26T01:36:00;6.50;;;2.40;;
59416;SDS011;45222;52.458;20.914;2023-02-26T01:39:53;3.40;;;1.60;;
59416;SDS011;45222;52.458;20.914;2023-02-26T01:43:51;4.60;;;1.90;;
59416;SDS011;45222;52.458;20.914;2023-02-26T01:47:44;6.50;;;3.80;;
59416;SDS011;45222;52.458;20.914;2023-02-26T01:51:42;5.30;;;1.90;;
59416;SDS011;45222;52.458;20.914;2023-02-26T01:55:31;6.90;;;4.40;;
59416;SDS011;45222;52.458;20.914;2023-02-26T01:59:16;6.20;;;3.80;;
59416;SDS011;45222;52.458;20.914;2023-02-26T02:03:09;5.70;;;2.10;;
59416;SDS011;45222;52.458;20.914;2023-02-26T02:06:54;6.50;;;4.10;;
59416;SDS011;45222;52.458;20.914;2023-02-26T02:10:40;6.50;;;3.80;;
59416;SDS011;45222;52.458;20.914;2023-02-26T02:14:28;4.90;;;2.10;;
59416;SDS011;45222;52.458;20.914;2023-02-26T02:18:28;4.20;;;1.90;;
59416;SDS011;45222;52.458;20.914;2023-02-26T02:22:27;2.70;;;1.20;;
59416;SDS011;45222;52.458;20.914;2023-02-26T02:30:56;6.60;;;4.00;;
59416;SDS011;45222;52.458;20.914;2023-02-26T02:34:46;7.90;;;2.60;;
59416;SDS011;45222;52.458;20.914;2023-02-26T02:38:37;4.70;;;1.90;;
59416;SDS011;45222;52.458;20.914;2023-02-26T02:42:29;6.10;;;3.70;;
59416;SDS011;45222;52.458;20.914;2023-02-26T02:46:19;6.10;;;2.40;;
59416;SDS011;45222;52.458;20.914;2023-02-26T02:50:10;5.80;;;2.10;;
59416;SDS011;45222;52.458;20.914;2023-02-26T02:54:02;6.70;;;3.80;;
59416;SDS011;45222;52.458;20.914;2023-02-26T02:57:55;3.50;;;1.70;;
59416;SDS011;45222;52.458;20.914;2023-02-26T03:01:44;2.60;;;1.40;;
59416;SDS011;45222;52.458;20.914;2023-02-26T03:05:33;5.40;;;3.10;;
59416;SDS011;45222;52.458;20.914;2023-02-26T03:09:18;4.70;;;1.90;;
59416;SDS011;45222;52.458;20.914;2023-02-26T03:13:04;4.00;;;1.70;;
59416;SDS011;45222;52.458;20.914;2023-02-26T03:21:01;5.40;;;1.90;;
59416;SDS011;45222;52.458;20.914;2023-02-26T03:24:54;4.40;;;1.60;;
59416;SDS011;45222;52.458;20.914;2023-02-26T03:28:44;5.50;;;2.90;;
59416;SDS011;45222;52.458;20.914;2023-02-26T03:32:40;6.20;;;3.30;;
59416;SDS011;45222;52.458;20.914;2023-02-26T03:36:34;4.10;;;1.60;;
59416;SDS011;45222;52.458;20.914;2023-02-26T03:40:23;6.30;;;1.80;;
59416;SDS011;45222;52.458;20.914;2023-02-26T03:47:59;4.20;;;1.40;;
59416;SDS011;45222;52.458;20.914;2023-02-26T03:51:48;5.70;;;3.20;;
59416;SDS011;45222;52.458;20.914;2023-02-26T03:55:35;5.80;;;3.30;;
59416;SDS011;45222;52.458;20.914;2023-02-26T03:59:25;5.50;;;2.10;;
59416;SDS011;45222;52.458;20.914;2023-02-26T04:03:11;5.60;;;2.10;;
59416;SDS011;45222;52.458;20.914;2023-02-26T04:07:02;4.40;;;2.10;;
59416;SDS011;45222;52.458;20.914;2023-02-26T04:10:52;6.20;;;3.50;;
59416;SDS011;45222;52.458;20.914;2023-02-26T04:14:41;2.90;;;1.40;;
59416;SDS011;45222;52.458;20.914;2023-02-26T04:18:26;4.30;;;1.90;;
59416;SDS011;45222;52.458;20.914;2023-02-26T04:22:12;6.00;;;3.30;;
59416;SDS011;45222;52.458;20.914;2023-02-26T04:25:58;4.80;;;2.00;;
59416;SDS011;45222;52.458;20.914;2023-02-26T04:29:43;5.80;;;1.80;;
59416;SDS011;45222;52.458;20.914;2023-02-26T04:33:29;5.60;;;2.90;;
59416;SDS011;45222;52.458;20.914;2023-02-26T04:37:15;5.00;;;1.70;;
59416;SDS011;45222;52.458;20.914;2023-02-26T04:41:01;3.10;;;1.40;;
59416;SDS011;45222;52.458;20.914;2023-02-26T04:44:46;3.60;;;1.60;;
59416;SDS011;45222;52.458;20.914;2023-02-26T04:48:32;3.60;;;1.40;;
59416;SDS011;45222;52.458;20.914;2023-02-26T04:52:17;4.00;;;1.40;;
59416;SDS011;45222;52.458;20.914;2023-02-26T04:56:03;2.90;;;1.60;;
59416;SDS011;45222;52.458;20.914;2023-02-26T04:59:49;5.30;;;2.80;;
59416;SDS011;45222;52.458;20.914;2023-02-26T05:03:34;5.10;;;1.90;;
59416;SDS011;45222;52.458;20.914;2023-02-26T05:07:19;3.10;;;1.30;;
59416;SDS011;45222;52.458;20.914;2023-02-26T05:11:05;4.40;;;2.10;;
59416;SDS011;45222;52.458;20.914;2023-02-26T05:14:50;3.30;;;1.50;;
59416;SDS011;45222;52.458;20.914;2023-02-26T05:18:35;3.20;;;1.30;;
59416;SDS011;45222;52.458;20.914;2023-02-26T05:22:21;2.20;;;1.00;;
59416;SDS011;45222;52.458;20.914;2023-02-26T05:26:06;3.40;;;1.80;;
59416;SDS011;45222;52.458;20.914;2023-02-26T05:29:52;3.30;;;1.40;;
59416;SDS011;45222;52.458;20.914;2023-02-26T05:33:37;2.60;;;1.10;;
59416;SDS011;45222;52.458;20.914;2023-02-26T05:37:23;3.60;;;1.20;;
59416;SDS011;45222;52.458;20.914;2023-02-26T05:41:08;1.80;;;1.10;;
59416;SDS011;45222;52.458;20.914;2023-02-26T05:44:54;2.80;;;1.40;;
59416;SDS011;45222;52.458;20.914;2023-02-26T05:48:40;2.80;;;1.40;;
59416;SDS011;45222;52.458;20.914;2023-02-26T05:52:25;2.40;;;1.20;;
59416;SDS011;45222;52.458;20.914;2023-02-26T05:56:11;3.40;;;1.20;;
59416;SDS011;45222;52.458;20.914;2023-02-26T05:59:56;2.40;;;1.20;;
59416;SDS011;45222;52.458;20.914;2023-02-26T06:03:41;1.70;;;0.90;;
59416;SDS011;45222;52.458;20.914;2023-02-26T06:07:27;3.30;;;1.70;;
59416;SDS011;45222;52.458;20.914;2023-02-26T06:11:13;2.70;;;1.10;;
59416;SDS011;45222;52.458;20.914;2023-02-26T06:14:58;3.70;;;1.90;;
59416;SDS011;45222;52.458;20.914;2023-02-26T06:18:43;2.60;;;1.30;;
59416;SDS011;45222;52.458;20.914;2023-02-26T06:22:29;3.60;;;1.10;;
59416;SDS011;45222;52.458;20.914;2023-02-26T06:26:15;5.00;;;2.30;;
59416;SDS011;45222;52.458;20.914;2023-02-26T06:30:00;4.80;;;2.20;;
59416;SDS011;45222;52.458;20.914;2023-02-26T06:33:45;4.40;;;1.50;;
59416;SDS011;45222;52.458;20.914;2023-02-26T06:37:31;4.60;;;2.40;;
59416;SDS011;45222;52.458;20.914;2023-02-26T06:41:16;5.10;;;2.40;;
59416;SDS011;45222;52.458;20.914;2023-02-26T06:45:02;5.30;;;2.50;;
59416;SDS011;45222;52.458;20.914;2023-02-26T06:48:48;2.20;;;1.10;;
59416;SDS011;45222;52.458;20.914;2023-02-26T06:52:34;2.00;;;0.90;;
59416;SDS011;45222;52.458;20.914;2023-02-26T06:56:19;5.90;;;2.70;;
59416;SDS011;45222;52.458;20.914;2023-02-26T07:00:06;4.90;;;2.20;;
59416;SDS011;45222;52.458;20.914;2023-02-26T07:03:53;4.70;;;2.90;;
59416;SDS011;45222;52.458;20.914;2023-02-26T07:07:38;14.60;;;4.40;;
59416;SDS011;45222;52.458;20.914;2023-02-26T07:11:23;8.60;;;2.90;;
59416;SDS011;45222;52.458;20.914;2023-02-26T07:15:09;4.10;;;1.40;;
59416;SDS011;45222;52.458;20.914;2023-02-26T07:18:54;10.00;;;5.30;;
59416;SDS011;45222;52.458;20.914;2023-02-26T07:22:40;2.40;;;1.00;;
59416;SDS011;45222;52.458;20.914;2023-02-26T07:26:25;23.70;;;14.30;;
59416;SDS011;45222;52.458;20.914;2023-02-26T07:30:12;6.00;;;2.60;;
59416;SDS011;45222;52.458;20.914;2023-02-26T07:33:58;6.60;;;2.40;;
59416;SDS011;45222;52.458;20.914;2023-02-26T07:37:43;5.50;;;2.10;;
59416;SDS011;45222;52.458;20.914;2023-02-26T07:41:29;10.40;;;4.60;;
59416;SDS011;45222;52.458;20.914;2023-02-26T07:45:15;7.30;;;2.90;;
59416;SDS011;45222;52.458;20.914;2023-02-26T07:49:04;8.00;;;3.20;;
59416;SDS011;45222;52.458;20.914;2023-02-26T07:52:50;3.60;;;1.40;;
59416;SDS011;45222;52.458;20.914;2023-02-26T07:56:36;7.60;;;4.90;;
59416;SDS011;45222;52.458;20.914;2023-02-26T08:00:22;2.60;;;1.40;;
59416;SDS011;45222;52.458;20.914;2023-02-26T08:04:07;5.10;;;2.10;;
59416;SDS011;45222;52.458;20.914;2023-02-26T08:07:53;7.00;;;4.30;;
59416;SDS011;45222;52.458;20.914;2023-02-26T08:11:38;4.90;;;1.70;;
59416;SDS011;45222;52.458;20.914;2023-02-26T08:15:25;5.20;;;2.70;;
59416;SDS011;45222;52.458;20.914;2023-02-26T08:19:11;4.70;;;2.50;;
59416;SDS011;45222;52.458;20.914;2023-02-26T08:22:58;3.40;;;1.50;;
59416;SDS011;45222;52.458;20.914;2023-02-26T08:26:44;6.80;;;1.80;;
59416;SDS011;45222;52.458;20.914;2023-02-26T08:30:29;5.80;;;1.90;;
59416;SDS011;45222;52.458;20.914;2023-02-26T08:34:15;3.50;;;1.40;;
59416;SDS011;45222;52.458;20.914;2023-02-26T08:38:01;2.30;;;1.30;;
59416;SDS011;45222;52.458;20.914;2023-02-26T08:41:46;2.70;;;1.20;;
59416;SDS011;45222;52.458;20.914;2023-02-26T08:45:31;5.90;;;1.90;;
59416;SDS011;45222;52.458;20.914;2023-02-26T08:49:17;6.20;;;3.00;;
59416;SDS011;45222;52.458;20.914;2023-02-26T08:53:02;4.10;;;1.70;;
59416;SDS011;45222;52.458;20.914;2023-02-26T08:56:47;5.80;;;1.60;;
59416;SDS011;45222;52.458;20.914;2023-02-26T09:00:33;5.90;;;3.10;;
59416;SDS011;45222;52.458;20.914;2023-02-26T09:04:19;4.80;;;1.60;;
59416;SDS011;45222;52.458;20.914;2023-02-26T09:08:05;3.90;;;1.80;;
59416;SDS011;45222;52.458;20.914;2023-02-26T09:11:51;7.60;;;3.70;;
59416;SDS011;45222;52.458;20.914;2023-02-26T09:15:36;5.90;;;2.00;;
59416;SDS011;45222;52.458;20.914;2023-02-26T09:19:21;2.70;;;1.40;;
59416;SDS011;45222;52.458;20.914;2023-02-26T09:23:07;4.00;;;1.70;;
59416;SDS011;45222;52.458;20.914;2023-02-26T09:26:53;6.10;;;3.10;;
59416;SDS011;45222;52.458;20.914;2023-02-26T09:30:38;4.70;;;1.90;;
59416;SDS011;45222;52.458;20.914;2023-02-26T09:34:23;2.80;;;1.30;;
59416;SDS011;45222;52.458;20.914;2023-02-26T09:38:09;6.30;;;3.00;;
59416;SDS011;45222;52.458;20.914;2023-02-26T09:41:54;4.20;;;1.40;;
59416;SDS011;45222;52.458;20.914;2023-02-26T09:45:44;5.10;;;1.70;;
59416;SDS011;45222;52.458;20.914;2023-02-26T09:49:33;4.20;;;1.80;;
59416;SDS011;45222;52.458;20.914;2023-02-26T09:53:33;3.50;;;1.70;;
59416;SDS011;45222;52.458;20.914;2023-02-26T09:57:28;7.20;;;3.70;;
59416;SDS011;45222;52.458;20.914;2023-02-26T10:01:17;7.30;;;3.10;;
59416;SDS011;45222;52.458;20.914;2023-02-26T10:05:14;6.00;;;3.40;;
59416;SDS011;45222;52.458;20.914;2023-02-26T10:09:11;5.60;;;3.00;;
59416;SDS011;45222;52.458;20.914;2023-02-26T10:13:20;4.20;;;1.60;;
59416;SDS011;45222;52.458;20.914;2023-02-26T10:17:14;4.20;;;1.70;;
59416;SDS011;45222;52.458;20.914;2023-02-26T10:21:05;10.40;;;6.00;;
59416;SDS011;45222;52.458;20.914;2023-02-26T10:24:57;5.80;;;2.90;;
59416;SDS011;45222;52.458;20.914;2023-02-26T10:28:49;5.10;;;2.30;;
59416;SDS011;45222;52.458;20.914;2023-02-26T10:32:42;4.40;;;1.20;;
59416;SDS011;45222;52.458;20.914;2023-02-26T10:36:39;5.20;;;1.90;;
59416;SDS011;45222;52.458;20.914;2023-02-26T10:40:31;2.00;;;0.90;;
59416;SDS011;45222;52.458;20.914;2023-02-26T10:44:21;3.80;;;1.40;;
59416;SDS011;45222;52.458;20.914;2023-02-26T10:48:26;6.40;;;2.80;;
59416;SDS011;45222;52.458;20.914;2023-02-26T10:52:23;3.60;;;1.50;;
59416;SDS011;45222;52.458;20.914;2023-02-26T10:56:12;3.20;;;1.60;;
59416;SDS011;45222;52.458;20.914;2023-02-26T11:00:01;2.20;;;1.10;;
59416;SDS011;45222;52.458;20.914;2023-02-26T11:03:49;3.90;;;1.30;;
59416;SDS011;45222;52.458;20.914;2023-02-26T11:07:39;3.90;;;1.30;;
59416;SDS011;45222;52.458;20.914;2023-02-26T11:11:35;7.30;;;3.90;;
59416;SDS011;45222;52.458;20.914;2023-02-26T11:15:24;2.60;;;1.40;;
59416;SDS011;45222;52.458;20.914;2023-02-26T11:19:10;5.30;;;2.30;;
59416;SDS011;45222;52.458;20.914;2023-02-26T11:22:58;4.50;;;1.70;;
59416;SDS011;45222;52.458;20.914;2023-02-26T11:26:47;16.30;;;12.60;;
59416;SDS011;45222;52.458;20.914;2023-02-26T11:30:35;7.10;;;4.40;;
59416;SDS011;45222;52.458;20.914;2023-02-26T11:34:22;7.50;;;4.80;;
59416;SDS011;45222;52.458;20.914;2023-02-26T11:38:09;6.00;;;2.40;;
59416;SDS011;45222;52.458;20.914;2023-02-26T11:42:02;5.10;;;2.00;;
59416;SDS011;45222;52.458;20.914;2023-02-26T11:45:51;5.10;;;2.10;;
59416;SDS011;45222;52.458;20.914;2023-02-26T11:49:40;5.40;;;1.60;;
59416;SDS011;45222;52.458;20.914;2023-02-26T11:57:16;7.30;;;4.70;;
59416;SDS011;45222;52.458;20.914;2023-02-26T12:01:03;4.90;;;2.20;;
59416;SDS011;45222;52.458;20.914;2023-02-26T12:04:50;3.60;;;1.10;;
59416;SDS011;45222;52.458;20.914;2023-02-26T12:08:37;8.50;;;4.00;;
59416;SDS011;45222;52.458;20.914;2023-02-26T12:12:29;7.00;;;3.30;;
59416;SDS011;45222;52.458;20.914;2023-02-26T12:16:27;7.10;;;3.60;;
59416;SDS011;45222;52.458;20.914;2023-02-26T12:20:23;3.90;;;1.70;;
59416;SDS011;45222;52.458;20.914;2023-02-26T12:24:28;7.00;;;2.80;;
59416;SDS011;45222;52.458;20.914;2023-02-26T12:28:49;3.70;;;1.70;;
59416;SDS011;45222;52.458;20.914;2023-02-26T12:32:49;6.60;;;3.10;;
59416;SDS011;45222;52.458;20.914;2023-02-26T12:36:57;5.40;;;2.30;;
59416;SDS011;45222;52.458;20.914;2023-02-26T12:40:59;4.20;;;1.80;;
59416;SDS011;45222;52.458;20.914;2023-02-26T12:44:57;6.50;;;2.50;;
59416;SDS011;45222;52.458;20.914;2023-02-26T12:53:15;3.50;;;1.70;;
59416;SDS011;45222;52.458;20.914;2023-02-26T12:57:24;5.50;;;2.60;;
59416;SDS011;45222;52.458;20.914;2023-02-26T13:01:26;4.70;;;1.80;;
59416;SDS011;45222;52.458;20.914;2023-02-26T13:05:32;8.00;;;3.20;;
59416;SDS011;45222;52.458;20.914;2023-02-26T13:09:44;4.90;;;1.50;;
59416;SDS011;45222;52.458;20.914;2023-02-26T13:13:47;8.30;;;3.60;;
59416;SDS011;45222;52.458;20.914;2023-02-26T13:17:42;3.90;;;1.50;;
59416;SDS011;45222;52.458;20.914;2023-02-26T13:21:36;10.10;;;5.60;;
59416;SDS011;45222;52.458;20.914;2023-02-26T13:25:27;6.60;;;2.80;;
59416;SDS011;45222;52.458;20.914;2023-02-26T13:29:19;22.20;;;13.90;;
59416;SDS011;45222;52.458;20.914;2023-02-26T13:33:10;6.80;;;2.00;;
59416;SDS011;45222;52.458;20.914;2023-02-26T13:37:01;3.70;;;1.50;;
59416;SDS011;45222;52.458;20.914;2023-02-26T13:40:49;9.50;;;4.30;;
59416;SDS011;45222;52.458;20.914;2023-02-26T13:44:47;8.40;;;3.20;;
59416;SDS011;45222;52.458;20.914;2023-02-26T13:48:47;6.10;;;2.60;;
59416;SDS011;45222;52.458;20.914;2023-02-26T13:52:51;6.40;;;2.40;;
59416;SDS011;45222;52.458;20.914;2023-02-26T14:00:57;5.30;;;1.70;;
59416;SDS011;45222;52.458;20.914;2023-02-26T14:04:50;6.60;;;2.50;;
59416;SDS011;45222;52.458;20.914;2023-02-26T14:12:36;26.00;;;19.80;;
59416;SDS011;45222;52.458;20.914;2023-02-26T14:16:26;13.80;;;5.70;;
59416;SDS011;45222;52.458;20.914;2023-02-26T14:20:17;9.70;;;5.10;;
59416;SDS011;45222;52.458;20.914;2023-02-26T14:24:12;4.80;;;1.80;;
59416;SDS011;45222;52.458;20.914;2023-02-26T14:28:28;6.90;;;2.90;;
59416;SDS011;45222;52.458;20.914;2023-02-26T14:32:25;8.00;;;2.50;;
59416;SDS011;45222;52.458;20.914;2023-02-26T14:36:15;12.90;;;9.10;;
59416;SDS011;45222;52.458;20.914;2023-02-26T14:40:05;6.80;;;2.90;;
59416;SDS011;45222;52.458;20.914;2023-02-26T14:43:59;8.60;;;4.20;;
59416;SDS011;45222;52.458;20.914;2023-02-26T14:47:49;5.90;;;2.00;;
59416;SDS011;45222;52.458;20.914;2023-02-26T14:51:37;7.90;;;3.60;;
59416;SDS011;45222;52.458;20.914;2023-02-26T14:55:44;9.60;;;5.10;;
59416;SDS011;45222;52.458;20.914;2023-02-26T14:59:43;7.70;;;2.30;;
59416;SDS011;45222;52.458;20.914;2023-02-26T15:03:51;29.10;;;23.90;;
59416;SDS011;45222;52.458;20.914;2023-02-26T15:12:02;13.80;;;9.80;;
59416;SDS011;45222;52.458;20.914;2023-02-26T15:15:56;22.10;;;13.60;;
59416;SDS011;45222;52.458;20.914;2023-02-26T15:19:56;18.50;;;8.70;;
59416;SDS011;45222;52.458;20.914;2023-02-26T15:23:59;25.60;;;11.50;;
59416;SDS011;45222;52.458;20.914;2023-02-26T15:27:45;18.80;;;8.40;;
59416;SDS011;45222;52.458;20.914;2023-02-26T15:31:33;44.80;;;39.20;;
59416;SDS011;45222;52.458;20.914;2023-02-26T15:35:20;35.70;;;30.90;;
59416;SDS011;45222;52.458;20.914;2023-02-26T15:42:54;5.40;;;1.70;;
59416;SDS011;45222;52.458;20.914;2023-02-26T15:46:41;12.70;;;9.00;;
59416;SDS011;45222;52.458;20.914;2023-02-26T15:50:30;6.40;;;2.10;;
59416;SDS011;45222;52.458;20.914;2023-02-26T15:54:18;10.90;;;7.10;;
59416;SDS011;45222;52.458;20.914;2023-02-26T15:58:06;9.00;;;3.10;;
59416;SDS011;45222;52.458;20.914;2023-02-26T16:01:52;11.80;;;4.90;;
59416;SDS011;45222;52.458;20.914;2023-02-26T16:05:38;8.60;;;2.80;;
59416;SDS011;45222;52.458;20.914;2023-02-26T16:09:26;9.70;;;4.30;;
59416;SDS011;45222;52.458;20.914;2023-02-26T16:13:14;10.70;;;5.00;;
59416;SDS011;45222;52.458;20.914;2023-02-26T16:17:10;7.90;;;3.70;;
59416;SDS011;45222;52.458;20.914;2023-02-26T16:20:58;7.60;;;2.40;;
59416;SDS011;45222;52.458;20.914;2023-02-26T16:24:45;6.10;;;2.00;;
59416;SDS011;45222;52.458;20.914;2023-02-26T16:28:35;8.40;;;2.80;;
59416;SDS011;45222;52.458;20.914;2023-02-26T16:32:28;6.90;;;1.80;;
59416;SDS011;45222;52.458;20.914;2023-02-26T16:36:15;8.50;;;3.10;;
59416;SDS011;45222;52.458;20.914;2023-02-26T16:40:15;8.60;;;3.20;;
59416;SDS011;45222;52.458;20.914;2023-02-26T16:44:03;8.80;;;2.20;;
59416;SDS011;45222;52.458;20.914;2023-02-26T16:51:48;7.00;;;1.80;;
59416;SDS011;45222;52.458;20.914;2023-02-26T16:55:36;10.90;;;3.20;;
59416;SDS011;45222;52.458;20.914;2023-02-26T16:59:23;19.70;;;10.20;;
59416;SDS011;45222;52.458;20.914;2023-02-26T17:03:10;15.40;;;8.90;;
59416;SDS011;45222;52.458;20.914;2023-02-26T17:06:58;11.80;;;4.10;;
59416;SDS011;45222;52.458;20.914;2023-02-26T17:10:46;16.40;;;6.80;;
59416;SDS011;45222;52.458;20.914;2023-02-26T17:14:36;19.20;;;11.20;;
59416;SDS011;45222;52.458;20.914;2023-02-26T17:18:25;17.30;;;6.70;;
59416;SDS011;45222;52.458;20.914;2023-02-26T17:22:20;20.20;;;9.70;;
59416;SDS011;45222;52.458;20.914;2023-02-26T17:26:08;16.10;;;8.20;;
59416;SDS011;45222;52.458;20.914;2023-02-26T17:29:55;17.70;;;5.40;;
59416;SDS011;45222;52.458;20.914;2023-02-26T17:33:41;14.20;;;7.50;;
59416;SDS011;45222;52.458;20.914;2023-02-26T17:37:29;11.30;;;3.40;;
59416;SDS011;45222;52.458;20.914;2023-02-26T17:41:17;14.40;;;7.70;;
59416;SDS011;45222;52.458;20.914;2023-02-26T17:45:04;12.50;;;3.10;;
59416;SDS011;45222;52.458;20.914;2023-02-26T17:48:50;37.40;;;21.70;;
59416;SDS011;45222;52.458;20.914;2023-02-26T17:52:35;44.90;;;27.90;;
59416;SDS011;45222;52.458;20.914;2023-02-26T17:56:22;14.90;;;6.30;;
59416;SDS011;45222;52.458;20.914;2023-02-26T18:03:57;10.40;;;5.20;;
59416;SDS011;45222;52.458;20.914;2023-02-26T18:07:43;8.30;;;2.70;;
59416;SDS011;45222;52.458;20.914;2023-02-26T18:11:29;10.90;;;5.00;;
59416;SDS011;45222;52.458;20.914;2023-02-26T18:15:15;6.20;;;2.00;;
59416;SDS011;45222;52.458;20.914;2023-02-26T18:19:01;4.70;;;1.70;;
59416;SDS011;45222;52.458;20.914;2023-02-26T18:22:46;8.10;;;3.00;;
59416;SDS011;45222;52.458;20.914;2023-02-26T18:26:33;3.80;;;1.60;;
59416;SDS011;45222;52.458;20.914;2023-02-26T18:30:20;10.50;;;5.90;;
59416;SDS011;45222;52.458;20.914;2023-02-26T18:34:07;10.20;;;5.50;;
59416;SDS011;45222;52.458;20.914;2023-02-26T18:37:53;9.00;;;3.20;;
59416;SDS011;45222;52.458;20.914;2023-02-26T18:41:40;8.90;;;3.10;;
59416;SDS011;45222;52.458;20.914;2023-02-26T18:45:25;14.50;;;9.80;;
59416;SDS011;45222;52.458;20.914;2023-02-26T18:49:13;7.80;;;3.30;;
59416;SDS011;45222;52.458;20.914;2023-02-26T18:53:01;11.90;;;5.60;;
59416;SDS011;45222;52.458;20.914;2023-02-26T18:56:46;10.90;;;4.70;;
59416;SDS011;45222;52.458;20.914;2023-02-26T19:00:32;28.20;;;23.00;;
59416;SDS011;45222;52.458;20.914;2023-02-26T19:04:18;7.20;;;2.50;;
59416;SDS011;45222;52.458;20.914;2023-02-26T19:08:03;20.40;;;15.00;;
59416;SDS011;45222;52.458;20.914;2023-02-26T19:11:49;12.30;;;5.10;;
59416;SDS011;45222;52.458;20.914;2023-02-26T19:15:36;19.30;;;14.40;;
59416;SDS011;45222;52.458;20.914;2023-02-26T19:19:22;9.30;;;5.10;;
59416;SDS011;45222;52.458;20.914;2023-02-26T19:23:07;5.60;;;2.30;;
59416;SDS011;45222;52.458;20.914;2023-02-26T19:26:53;7.10;;;2.60;;
59416;SDS011;45222;52.458;20.914;2023-02-26T19:30:39;6.40;;;2.80;;
59416;SDS011;45222;52.458;20.914;2023-02-26T19:34:25;5.40;;;1.80;;
59416;SDS011;45222;52.458;20.914;2023-02-26T19:38:10;6.50;;;1.90;;
59416;SDS011;45222;52.458;20.914;2023-02-26T19:41:56;7.00;;;3.50;;
59416;SDS011;45222;52.458;20.914;2023-02-26T19:45:41;9.90;;;4.80;;
59416;SDS011;45222;52.458;20.914;2023-02-26T19:49:30;7.70;;;1.90;;
59416;SDS011;45222;52.458;20.914;2023-02-26T19:53:20;11.30;;;5.00;;
59416;SDS011;45222;52.458;20.914;2023-02-26T19:57:05;9.50;;;2.30;;
59416;SDS011;45222;52.458;20.914;2023-02-26T20:00:51;11.30;;;4.70;;
59416;SDS011;45222;52.458;20.914;2023-02-26T20:04:37;8.80;;;2.50;;
59416;SDS011;45222;52.458;20.914;2023-02-26T20:08:23;12.10;;;5.90;;
59416;SDS011;45222;52.458;20.914;2023-02-26T20:12:11;13.70;;;7.70;;
59416;SDS011;45222;52.458;20.914;2023-02-26T20:15:58;13.60;;;7.10;;
59416;SDS011;45222;52.458;20.914;2023-02-26T20:19:44;4.70;;;1.90;;
59416;SDS011;45222;52.458;20.914;2023-02-26T20:23:30;11.90;;;6.80;;
59416;SDS011;45222;52.458;20.914;2023-02-26T20:27:17;7.20;;;2.50;;
59416;SDS011;45222;52.458;20.914;2023-02-26T20:31:03;10.80;;;4.40;;
59416;SDS011;45222;52.458;20.914;2023-02-26T20:34:49;12.60;;;6.40;;
59416;SDS011;45222;52.458;20.914;2023-02-26T20:38:35;15.20;;;9.00;;
59416;SDS011;45222;52.458;20.914;2023-02-26T20:42:21;12.80;;;4.80;;
59416;SDS011;45222;52.458;20.914;2023-02-26T20:46:06;11.30;;;4.30;;
59416;SDS011;45222;52.458;20.914;2023-02-26T20:49:52;15.80;;;10.30;;
59416;SDS011;45222;52.458;20.914;2023-02-26T20:53:37;13.50;;;7.20;;
59416;SDS011;45222;52.458;20.914;2023-02-26T20:57:23;10.80;;;4.20;;
59416;SDS011;45222;52.458;20.914;2023-02-26T21:01:08;9.50;;;3.50;;
59416;SDS011;45222;52.458;20.914;2023-02-26T21:04:54;12.20;;;3.40;;
59416;SDS011;45222;52.458;20.914;2023-02-26T21:08:39;12.60;;;6.30;;
59416;SDS011;45222;52.458;20.914;2023-02-26T21:12:26;11.70;;;6.30;;
59416;SDS011;45222;52.458;20.914;2023-02-26T21:16:14;6.90;;;2.60;;
59416;SDS011;45222;52.458;20.914;2023-02-26T21:19:59;11.70;;;5.90;;
59416;SDS011;45222;52.458;20.914;2023-02-26T21:23:45;9.00;;;3.40;;
59416;SDS011;45222;52.458;20.914;2023-02-26T21:27:30;13.20;;;6.50;;
59416;SDS011;45222;52.458;20.914;2023-02-26T21:31:17;7.30;;;2.60;;
59416;SDS011;45222;52.458;20.914;2023-02-26T21:35:05;11.10;;;3.00;;
59416;SDS011;45222;52.458;20.914;2023-02-26T21:42:37;16.80;;;8.00;;
59416;SDS011;45222;52.458;20.914;2023-02-26T21:46:23;13.30;;;4.50;;
59416;SDS011;45222;52.458;20.914;2023-02-26T21:50:09;15.20;;;8.70;;
59416;SDS011;45222;52.458;20.914;2023-02-26T21:53:55;10.20;;;3.30;;
59416;SDS011;45222;52.458;20.914;2023-02-26T21:57:40;17.00;;;8.30;;
59416;SDS011;45222;52.458;20.914;2023-02-26T22:01:25;22.20;;;9.60;;
59416;SDS011;45222;52.458;20.914;2023-02-26T22:05:11;21.20;;;7.30;;
59416;SDS011;45222;52.458;20.914;2023-02-26T22:08:56;19.60;;;5.20;;
59416;SDS011;45222;52.458;20.914;2023-02-26T22:12:41;18.90;;;8.30;;
59416;SDS011;45222;52.458;20.914;2023-02-26T22:16:27;10.70;;;2.90;;
59416;SDS011;45222;52.458;20.914;2023-02-26T22:20:16;15.00;;;3.90;;
59416;SDS011;45222;52.458;20.914;2023-02-26T22:24:07;16.60;;;9.00;;
59416;SDS011;45222;52.458;20.914;2023-02-26T22:27:53;15.50;;;4.70;;
59416;SDS011;45222;52.458;20.914;2023-02-26T22:31:38;10.60;;;3.70;;
59416;SDS011;45222;52.458;20.914;2023-02-26T22:35:23;11.10;;;3.30;;
59416;SDS011;45222;52.458;20.914;2023-02-26T22:39:09;20.00;;;10.60;;
59416;SDS011;45222;52.458;20.914;2023-02-26T22:42:55;23.80;;;8.00;;
59416;SDS011;45222;52.458;20.914;2023-02-26T22:46:41;18.20;;;6.50;;
59416;SDS011;45222;52.458;20.914;2023-02-26T22:50:26;15.00;;;7.90;;
59416;SDS011;45222;52.458;20.914;2023-02-26T22:54:12;13.20;;;3.70;;
59416;SDS011;45222;52.458;20.914;2023-02-26T22:57:57;14.10;;;6.70;;
59416;SDS011;45222;52.458;20.914;2023-02-26T23:01:43;7.70;;;2.50;;
59416;SDS011;45222;52.458;20.914;2023-02-26T23:05:28;14.50;;;7.00;;
59416;SDS011;45222;52.458;20.914;2023-02-26T23:09:14;15.20;;;7.00;;
59416;SDS011;45222;52.458;20.914;2023-02-26T23:12:59;12.10;;;3.60;;
59416;SDS011;45222;52.458;20.914;2023-02-26T23:16:45;8.80;;;2.50;;
59416;SDS011;45222;52.458;20.914;2023-02-26T23:20:31;10.60;;;4.80;;